sensor_id;sensor_type;location;lat;lon;timestamp;P1;durP1;ratioP1;P2;durP2;ratioP2
78416;SDS011;67715;46.170;6.140;2024-02-23T00:01:34;0.10;;;0.10;;
78416;SDS011;67715;46.170;6.140;2024-02-23T00:03:59;0.43;;;0.15;;
78416;SDS011;67715;46.170;6.140;2024-02-23T00:06:27;1.85;;;0.55;;
78416;SDS011;67715;46.170;6.140;2024-02-23T00:08:53;0.45;;;0.30;;
78416;SDS011;67715;46.170;6.140;2024-02-23T00:11:20;0.20;;;0.00;;
78416;SDS011;67715;46.170;6.140;2024-02-23T00:13:45;0.20;;;0.20;;
78416;SDS011;67715;46.170;6.140;2024-02-23T00:16:11;0.20;;;0.10;;
78416;SDS011;67715;46.170;6.140;2024-02-23T00:18:36;0.08;;;0.08;;
78416;SDS011;67715;46.170;6.140;2024-02-23T00:21:01;0.10;;;0.10;;
78416;SDS011;67715;46.170;6.140;2024-02-23T00:23:27;0.17;;;0.10;;
78416;SDS011;67715;46.170;6.140;2024-02-23T00:25:53;1.05;;;0.30;;
78416;SDS011;67715;46.170;6.140;2024-02-23T00:28:19;0.20;;;0.17;;
78416;SDS011;67715;46.170;6.140;2024-02-23T00:30:44;0.13;;;0.10;;
78416;SDS011;67715;46.170;6.140;2024-02-23T00:33:09;0.50;;;0.20;;
78416;SDS011;67715;46.170;6.140;2024-02-23T00:35:35;1.37;;;0.20;;
78416;SDS011;67715;46.170;6.140;2024-02-23T00:38:00;0.10;;;0.10;;
78416;SDS011;67715;46.170;6.140;2024-02-23T00:40:25;1.23;;;0.08;;
78416;SDS011;67715;46.170;6.140;2024-02-23T00:42:51;0.10;;;0.10;;
78416;SDS011;67715;46.170;6.140;2024-02-23T00:45:16;0.20;;;0.10;;
78416;SDS011;67715;46.170;6.140;2024-02-23T00:47:42;0.10;;;0.10;;
78416;SDS011;67715;46.170;6.140;2024-02-23T00:50:08;0.10;;;0.10;;
78416;SDS011;67715;46.170;6.140;2024-02-23T00:52:34;0.70;;;0.17;;
78416;SDS011;67715;46.170;6.140;2024-02-23T00:54:59;0.57;;;0.30;;
78416;SDS011;67715;46.170;6.140;2024-02-23T00:57:25;0.20;;;0.10;;
78416;SDS011;67715;46.170;6.140;2024-02-23T00:59:54;0.90;;;0.25;;
78416;SDS011;67715;46.170;6.140;2024-02-23T01:02:22;0.10;;;0.10;;
78416;SDS011;67715;46.170;6.140;2024-02-23T01:04:47;0.93;;;0.20;;
78416;SDS011;67715;46.170;6.140;2024-02-23T01:07:13;0.20;;;0.10;;
78416;SDS011;67715;46.170;6.140;2024-02-23T01:09:38;0.20;;;0.20;;
78416;SDS011;67715;46.170;6.140;2024-02-23T01:12:03;0.20;;;0.20;;
78416;SDS011;67715;46.170;6.140;2024-02-23T01:14:29;0.20;;;0.20;;
78416;SDS011;67715;46.170;6.140;2024-02-23T01:16:54;0.30;;;0.10;;
78416;SDS011;67715;46.170;6.140;2024-02-23T01:19:19;3.57;;;0.30;;
78416;SDS011;67715;46.170;6.140;2024-02-23T01:21:45;0.73;;;0.30;;
78416;SDS011;67715;46.170;6.140;2024-02-23T01:24:10;0.13;;;0.13;;
78416;SDS011;67715;46.170;6.140;2024-02-23T01:26:35;0.77;;;0.23;;
78416;SDS011;67715;46.170;6.140;2024-02-23T01:29:01;0.20;;;0.20;;
78416;SDS011;67715;46.170;6.140;2024-02-23T01:31:26;0.20;;;0.20;;
78416;SDS011;67715;46.170;6.140;2024-02-23T01:33:51;0.15;;;0.05;;
78416;SDS011;67715;46.170;6.140;2024-02-23T01:36:17;1.70;;;0.37;;
78416;SDS011;67715;46.170;6.140;2024-02-23T01:38:43;0.47;;;0.20;;
78416;SDS011;67715;46.170;6.140;2024-02-23T01:41:08;0.40;;;0.13;;
78416;SDS011;67715;46.170;6.140;2024-02-23T01:43:33;0.63;;;0.20;;
78416;SDS011;67715;46.170;6.140;2024-02-23T01:45:59;1.08;;;0.65;;
78416;SDS011;67715;46.170;6.140;2024-02-23T01:48:24;0.30;;;0.10;;
78416;SDS011;67715;46.170;6.140;2024-02-23T01:50:50;1.33;;;0.45;;
78416;SDS011;67715;46.170;6.140;2024-02-23T01:53:15;0.13;;;0.10;;
78416;SDS011;67715;46.170;6.140;2024-02-23T01:55:41;0.52;;;0.28;;
78416;SDS011;67715;46.170;6.140;2024-02-23T01:58:07;1.58;;;0.40;;
78416;SDS011;67715;46.170;6.140;2024-02-23T02:00:32;0.20;;;0.10;;
78416;SDS011;67715;46.170;6.140;2024-02-23T02:02:59;0.30;;;0.25;;
78416;SDS011;67715;46.170;6.140;2024-02-23T02:05:25;0.70;;;0.30;;
78416;SDS011;67715;46.170;6.140;2024-02-23T02:07:50;0.28;;;0.17;;
78416;SDS011;67715;46.170;6.140;2024-02-23T02:10:18;0.60;;;0.20;;
78416;SDS011;67715;46.170;6.140;2024-02-23T02:12:45;2.15;;;0.38;;
78416;SDS011;67715;46.170;6.140;2024-02-23T02:15:10;0.20;;;0.17;;
78416;SDS011;67715;46.170;6.140;2024-02-23T02:17:35;0.80;;;0.30;;
78416;SDS011;67715;46.170;6.140;2024-02-23T02:20:02;1.50;;;0.43;;
78416;SDS011;67715;46.170;6.140;2024-02-23T02:22:31;0.75;;;0.17;;
78416;SDS011;67715;46.170;6.140;2024-02-23T02:24:57;0.65;;;0.30;;
78416;SDS011;67715;46.170;6.140;2024-02-23T02:27:22;0.10;;;0.10;;
78416;SDS011;67715;46.170;6.140;2024-02-23T02:29:49;0.40;;;0.30;;
78416;SDS011;67715;46.170;6.140;2024-02-23T02:32:15;0.43;;;0.30;;
78416;SDS011;67715;46.170;6.140;2024-02-23T02:34:40;2.30;;;0.40;;
78416;SDS011;67715;46.170;6.140;2024-02-23T02:37:06;1.83;;;0.83;;
78416;SDS011;67715;46.170;6.140;2024-02-23T02:39:31;0.65;;;0.30;;
78416;SDS011;67715;46.170;6.140;2024-02-23T02:41:56;0.40;;;0.20;;
78416;SDS011;67715;46.170;6.140;2024-02-23T02:44:22;0.40;;;0.13;;
78416;SDS011;67715;46.170;6.140;2024-02-23T02:46:47;0.87;;;0.30;;
78416;SDS011;67715;46.170;6.140;2024-02-23T02:49:13;0.68;;;0.38;;
78416;SDS011;67715;46.170;6.140;2024-02-23T02:51:38;1.03;;;0.20;;
78416;SDS011;67715;46.170;6.140;2024-02-23T02:54:04;1.13;;;0.30;;
78416;SDS011;67715;46.170;6.140;2024-02-23T02:56:29;0.75;;;0.20;;
78416;SDS011;67715;46.170;6.140;2024-02-23T02:58:55;2.03;;;0.30;;
78416;SDS011;67715;46.170;6.140;2024-02-23T03:01:21;1.00;;;0.20;;
78416;SDS011;67715;46.170;6.140;2024-02-23T03:03:46;0.83;;;0.20;;
78416;SDS011;67715;46.170;6.140;2024-02-23T03:06:12;0.80;;;0.20;;
78416;SDS011;67715;46.170;6.140;2024-02-23T03:08:37;1.10;;;0.50;;
78416;SDS011;67715;46.170;6.140;2024-02-23T03:11:02;0.30;;;0.17;;
78416;SDS011;67715;46.170;6.140;2024-02-23T03:13:28;0.70;;;0.20;;
78416;SDS011;67715;46.170;6.140;2024-02-23T03:15:53;1.63;;;0.30;;
78416;SDS011;67715;46.170;6.140;2024-02-23T03:18:18;1.35;;;0.20;;
78416;SDS011;67715;46.170;6.140;2024-02-23T03:20:44;3.83;;;0.30;;
78416;SDS011;67715;46.170;6.140;2024-02-23T03:23:09;1.13;;;1.07;;
78416;SDS011;67715;46.170;6.140;2024-02-23T03:25:35;2.50;;;0.30;;
78416;SDS011;67715;46.170;6.140;2024-02-23T03:28:00;2.13;;;0.40;;
78416;SDS011;67715;46.170;6.140;2024-02-23T03:30:26;2.13;;;0.30;;
78416;SDS011;67715;46.170;6.140;2024-02-23T03:32:51;0.60;;;0.37;;
78416;SDS011;67715;46.170;6.140;2024-02-23T03:35:16;0.50;;;0.20;;
78416;SDS011;67715;46.170;6.140;2024-02-23T03:37:42;1.00;;;0.30;;
78416;SDS011;67715;46.170;6.140;2024-02-23T03:40:07;0.53;;;0.30;;
78416;SDS011;67715;46.170;6.140;2024-02-23T03:42:33;0.10;;;0.10;;
78416;SDS011;67715;46.170;6.140;2024-02-23T03:44:58;0.10;;;0.10;;
78416;SDS011;67715;46.170;6.140;2024-02-23T03:47:24;1.48;;;0.20;;
78416;SDS011;67715;46.170;6.140;2024-02-23T03:49:49;0.80;;;0.30;;
78416;SDS011;67715;46.170;6.140;2024-02-23T03:52:14;0.77;;;0.30;;
78416;SDS011;67715;46.170;6.140;2024-02-23T03:54:40;1.45;;;0.22;;
78416;SDS011;67715;46.170;6.140;2024-02-23T03:57:06;1.53;;;0.57;;
78416;SDS011;67715;46.170;6.140;2024-02-23T03:59:31;0.30;;;0.20;;
78416;SDS011;67715;46.170;6.140;2024-02-23T04:01:56;0.30;;;0.10;;
78416;SDS011;67715;46.170;6.140;2024-02-23T04:04:22;1.33;;;0.37;;
78416;SDS011;67715;46.170;6.140;2024-02-23T04:06:47;0.37;;;0.13;;
78416;SDS011;67715;46.170;6.140;2024-02-23T04:09:12;0.88;;;0.17;;
78416;SDS011;67715;46.170;6.140;2024-02-23T04:11:38;1.25;;;0.20;;
78416;SDS011;67715;46.170;6.140;2024-02-23T04:14:03;1.98;;;0.40;;
78416;SDS011;67715;46.170;6.140;2024-02-23T04:16:30;3.05;;;0.55;;
78416;SDS011;67715;46.170;6.140;2024-02-23T04:18:55;1.17;;;0.15;;
78416;SDS011;67715;46.170;6.140;2024-02-23T04:21:21;0.30;;;0.30;;
78416;SDS011;67715;46.170;6.140;2024-02-23T04:23:47;1.05;;;0.22;;
78416;SDS011;67715;46.170;6.140;2024-02-23T04:26:12;0.52;;;0.20;;
78416;SDS011;67715;46.170;6.140;2024-02-23T04:28:38;0.68;;;0.40;;
78416;SDS011;67715;46.170;6.140;2024-02-23T04:31:10;0.38;;;0.13;;
78416;SDS011;67715;46.170;6.140;2024-02-23T04:33:35;1.77;;;0.70;;
78416;SDS011;67715;46.170;6.140;2024-02-23T04:36:01;1.75;;;0.60;;
78416;SDS011;67715;46.170;6.140;2024-02-23T04:38:28;0.50;;;0.30;;
78416;SDS011;67715;46.170;6.140;2024-02-23T04:40:53;3.78;;;0.40;;
78416;SDS011;67715;46.170;6.140;2024-02-23T04:43:19;1.15;;;0.40;;
78416;SDS011;67715;46.170;6.140;2024-02-23T04:45:44;0.30;;;0.20;;
78416;SDS011;67715;46.170;6.140;2024-02-23T04:48:10;2.22;;;0.47;;
78416;SDS011;67715;46.170;6.140;2024-02-23T04:50:35;1.53;;;0.50;;
78416;SDS011;67715;46.170;6.140;2024-02-23T04:53:00;0.67;;;0.33;;
78416;SDS011;67715;46.170;6.140;2024-02-23T04:55:26;2.83;;;0.32;;
78416;SDS011;67715;46.170;6.140;2024-02-23T04:57:51;0.30;;;0.20;;
78416;SDS011;67715;46.170;6.140;2024-02-23T05:00:16;0.90;;;0.40;;
78416;SDS011;67715;46.170;6.140;2024-02-23T05:02:42;1.40;;;0.50;;
78416;SDS011;67715;46.170;6.140;2024-02-23T05:05:07;2.03;;;0.50;;
78416;SDS011;67715;46.170;6.140;2024-02-23T05:07:33;1.55;;;0.45;;
78416;SDS011;67715;46.170;6.140;2024-02-23T05:09:59;1.23;;;0.43;;
78416;SDS011;67715;46.170;6.140;2024-02-23T05:12:24;0.98;;;0.28;;
78416;SDS011;67715;46.170;6.140;2024-02-23T05:14:50;0.90;;;0.40;;
78416;SDS011;67715;46.170;6.140;2024-02-23T05:17:15;2.20;;;0.40;;
78416;SDS011;67715;46.170;6.140;2024-02-23T05:19:40;0.40;;;0.30;;
78416;SDS011;67715;46.170;6.140;2024-02-23T05:22:06;1.77;;;0.60;;
78416;SDS011;67715;46.170;6.140;2024-02-23T05:24:31;2.13;;;1.00;;
78416;SDS011;67715;46.170;6.140;2024-02-23T05:26:56;0.93;;;0.82;;
78416;SDS011;67715;46.170;6.140;2024-02-23T05:29:23;1.20;;;0.40;;
78416;SDS011;67715;46.170;6.140;2024-02-23T05:31:51;1.05;;;0.60;;
78416;SDS011;67715;46.170;6.140;2024-02-23T05:34:17;0.95;;;0.65;;
78416;SDS011;67715;46.170;6.140;2024-02-23T05:36:43;0.85;;;0.65;;
78416;SDS011;67715;46.170;6.140;2024-02-23T05:39:08;0.75;;;0.70;;
78416;SDS011;67715;46.170;6.140;2024-02-23T05:41:34;0.60;;;0.47;;
78416;SDS011;67715;46.170;6.140;2024-02-23T05:44:01;2.97;;;0.70;;
78416;SDS011;67715;46.170;6.140;2024-02-23T05:46:28;1.50;;;0.52;;
78416;SDS011;67715;46.170;6.140;2024-02-23T05:48:54;2.00;;;0.57;;
78416;SDS011;67715;46.170;6.140;2024-02-23T05:51:19;3.37;;;0.50;;
78416;SDS011;67715;46.170;6.140;2024-02-23T05:53:44;1.10;;;0.60;;
78416;SDS011;67715;46.170;6.140;2024-02-23T05:56:10;1.07;;;0.47;;
78416;SDS011;67715;46.170;6.140;2024-02-23T05:58:35;0.67;;;0.50;;
78416;SDS011;67715;46.170;6.140;2024-02-23T06:01:01;1.05;;;0.50;;
78416;SDS011;67715;46.170;6.140;2024-02-23T06:03:27;0.75;;;0.60;;
78416;SDS011;67715;46.170;6.140;2024-02-23T06:05:52;1.60;;;0.77;;
78416;SDS011;67715;46.170;6.140;2024-02-23T06:08:19;1.80;;;0.55;;
78416;SDS011;67715;46.170;6.140;2024-02-23T06:10:44;1.70;;;0.83;;
78416;SDS011;67715;46.170;6.140;2024-02-23T06:13:09;1.83;;;0.67;;
78416;SDS011;67715;46.170;6.140;2024-02-23T06:15:35;2.23;;;0.60;;
78416;SDS011;67715;46.170;6.140;2024-02-23T06:18:00;1.10;;;0.70;;
78416;SDS011;67715;46.170;6.140;2024-02-23T06:20:25;1.10;;;0.60;;
78416;SDS011;67715;46.170;6.140;2024-02-23T06:22:51;0.57;;;0.40;;
78416;SDS011;67715;46.170;6.140;2024-02-23T06:25:16;1.50;;;0.83;;
78416;SDS011;67715;46.170;6.140;2024-02-23T06:27:41;1.58;;;0.60;;
78416;SDS011;67715;46.170;6.140;2024-02-23T06:30:07;0.33;;;0.30;;
78416;SDS011;67715;46.170;6.140;2024-02-23T06:32:33;0.85;;;0.68;;
78416;SDS011;67715;46.170;6.140;2024-02-23T06:34:58;0.90;;;0.70;;
78416;SDS011;67715;46.170;6.140;2024-02-23T06:37:23;0.97;;;0.43;;
78416;SDS011;67715;46.170;6.140;2024-02-23T06:39:49;0.50;;;0.50;;
78416;SDS011;67715;46.170;6.140;2024-02-23T06:42:19;1.02;;;0.93;;
78416;SDS011;67715;46.170;6.140;2024-02-23T06:44:45;2.25;;;0.70;;
78416;SDS011;67715;46.170;6.140;2024-02-23T06:47:10;1.00;;;0.50;;
78416;SDS011;67715;46.170;6.140;2024-02-23T06:49:36;1.00;;;0.63;;
78416;SDS011;67715;46.170;6.140;2024-02-23T06:52:02;0.53;;;0.37;;
78416;SDS011;67715;46.170;6.140;2024-02-23T06:54:28;1.40;;;0.60;;
78416;SDS011;67715;46.170;6.140;2024-02-23T06:56:53;0.30;;;0.20;;
78416;SDS011;67715;46.170;6.140;2024-02-23T06:59:19;1.13;;;0.50;;
78416;SDS011;67715;46.170;6.140;2024-02-23T07:01:48;2.70;;;0.93;;
78416;SDS011;67715;46.170;6.140;2024-02-23T07:04:14;0.70;;;0.70;;
78416;SDS011;67715;46.170;6.140;2024-02-23T07:06:39;2.47;;;0.70;;
78416;SDS011;67715;46.170;6.140;2024-02-23T07:09:05;0.77;;;0.60;;
78416;SDS011;67715;46.170;6.140;2024-02-23T07:11:30;1.27;;;0.70;;
78416;SDS011;67715;46.170;6.140;2024-02-23T07:13:55;1.20;;;0.90;;
78416;SDS011;67715;46.170;6.140;2024-02-23T07:16:21;1.87;;;0.80;;
78416;SDS011;67715;46.170;6.140;2024-02-23T07:18:47;1.30;;;0.70;;
78416;SDS011;67715;46.170;6.140;2024-02-23T07:21:12;4.13;;;0.87;;
78416;SDS011;67715;46.170;6.140;2024-02-23T07:23:37;3.00;;;1.00;;
78416;SDS011;67715;46.170;6.140;2024-02-23T07:26:03;2.30;;;1.08;;
78416;SDS011;67715;46.170;6.140;2024-02-23T07:28:28;5.73;;;0.87;;
78416;SDS011;67715;46.170;6.140;2024-02-23T07:30:54;2.58;;;1.20;;
78416;SDS011;67715;46.170;6.140;2024-02-23T07:33:19;1.07;;;0.97;;
78416;SDS011;67715;46.170;6.140;2024-02-23T07:35:44;3.17;;;1.20;;
78416;SDS011;67715;46.170;6.140;2024-02-23T07:38:09;1.93;;;1.20;;
78416;SDS011;67715;46.170;6.140;2024-02-23T07:40:35;3.17;;;1.47;;
78416;SDS011;67715;46.170;6.140;2024-02-23T07:43:00;4.43;;;1.63;;
78416;SDS011;67715;46.170;6.140;2024-02-23T07:45:25;2.90;;;1.73;;
78416;SDS011;67715;46.170;6.140;2024-02-23T07:47:51;4.40;;;1.52;;
78416;SDS011;67715;46.170;6.140;2024-02-23T07:50:16;4.40;;;1.43;;
78416;SDS011;67715;46.170;6.140;2024-02-23T07:52:43;4.18;;;1.30;;
78416;SDS011;67715;46.170;6.140;2024-02-23T07:55:09;1.93;;;1.07;;
78416;SDS011;67715;46.170;6.140;2024-02-23T07:57:34;2.05;;;1.10;;
78416;SDS011;67715;46.170;6.140;2024-02-23T07:59:59;6.67;;;0.97;;
78416;SDS011;67715;46.170;6.140;2024-02-23T08:02:25;1.42;;;0.80;;
78416;SDS011;67715;46.170;6.140;2024-02-23T08:04:50;2.17;;;1.00;;
78416;SDS011;67715;46.170;6.140;2024-02-23T08:07:17;2.58;;;1.00;;
78416;SDS011;67715;46.170;6.140;2024-02-23T08:09:42;1.70;;;1.17;;
78416;SDS011;67715;46.170;6.140;2024-02-23T08:12:08;2.17;;;1.10;;
78416;SDS011;67715;46.170;6.140;2024-02-23T08:14:33;1.40;;;0.98;;
78416;SDS011;67715;46.170;6.140;2024-02-23T08:16:58;4.47;;;1.70;;
78416;SDS011;67715;46.170;6.140;2024-02-23T08:19:24;1.83;;;1.23;;
78416;SDS011;67715;46.170;6.140;2024-02-23T08:21:49;1.33;;;0.80;;
78416;SDS011;67715;46.170;6.140;2024-02-23T08:24:15;1.00;;;0.63;;
78416;SDS011;67715;46.170;6.140;2024-02-23T08:26:40;4.30;;;1.48;;
78416;SDS011;67715;46.170;6.140;2024-02-23T08:29:07;2.65;;;1.05;;
78416;SDS011;67715;46.170;6.140;2024-02-23T08:31:33;1.73;;;0.80;;
78416;SDS011;67715;46.170;6.140;2024-02-23T08:33:59;3.83;;;1.10;;
78416;SDS011;67715;46.170;6.140;2024-02-23T08:36:24;1.30;;;0.60;;
78416;SDS011;67715;46.170;6.140;2024-02-23T08:38:49;0.50;;;0.40;;
78416;SDS011;67715;46.170;6.140;2024-02-23T08:41:14;2.63;;;0.63;;
78416;SDS011;67715;46.170;6.140;2024-02-23T08:43:40;2.37;;;0.47;;
78416;SDS011;67715;46.170;6.140;2024-02-23T08:46:05;1.90;;;0.80;;
78416;SDS011;67715;46.170;6.140;2024-02-23T08:48:31;0.63;;;0.45;;
78416;SDS011;67715;46.170;6.140;2024-02-23T08:50:56;2.17;;;0.67;;
78416;SDS011;67715;46.170;6.140;2024-02-23T08:53:21;2.20;;;0.50;;
78416;SDS011;67715;46.170;6.140;2024-02-23T08:55:47;1.53;;;0.80;;
78416;SDS011;67715;46.170;6.140;2024-02-23T08:58:12;2.00;;;1.00;;
78416;SDS011;67715;46.170;6.140;2024-02-23T09:00:37;2.50;;;0.77;;
78416;SDS011;67715;46.170;6.140;2024-02-23T09:03:03;3.33;;;1.27;;
78416;SDS011;67715;46.170;6.140;2024-02-23T09:05:28;1.50;;;1.20;;
78416;SDS011;67715;46.170;6.140;2024-02-23T09:07:54;2.30;;;0.80;;
78416;SDS011;67715;46.170;6.140;2024-02-23T09:10:20;3.40;;;1.00;;
78416;SDS011;67715;46.170;6.140;2024-02-23T09:12:45;2.15;;;0.70;;
78416;SDS011;67715;46.170;6.140;2024-02-23T09:15:10;0.97;;;0.50;;
78416;SDS011;67715;46.170;6.140;2024-02-23T09:17:36;2.67;;;0.70;;
78416;SDS011;67715;46.170;6.140;2024-02-23T09:20:01;2.83;;;0.82;;
78416;SDS011;67715;46.170;6.140;2024-02-23T09:22:26;1.33;;;0.60;;
78416;SDS011;67715;46.170;6.140;2024-02-23T09:24:52;2.42;;;0.35;;
78416;SDS011;67715;46.170;6.140;2024-02-23T09:27:20;2.47;;;0.60;;
78416;SDS011;67715;46.170;6.140;2024-02-23T09:29:45;2.05;;;0.45;;
78416;SDS011;67715;46.170;6.140;2024-02-23T09:32:11;2.17;;;0.30;;
78416;SDS011;67715;46.170;6.140;2024-02-23T09:34:36;1.35;;;0.20;;
78416;SDS011;67715;46.170;6.140;2024-02-23T09:37:01;2.03;;;0.40;;
78416;SDS011;67715;46.170;6.140;2024-02-23T09:39:27;1.50;;;0.47;;
78416;SDS011;67715;46.170;6.140;2024-02-23T09:41:55;3.25;;;1.05;;
78416;SDS011;67715;46.170;6.140;2024-02-23T09:44:21;4.15;;;2.00;;
78416;SDS011;67715;46.170;6.140;2024-02-23T09:46:47;2.25;;;0.85;;
78416;SDS011;67715;46.170;6.140;2024-02-23T09:49:13;2.15;;;0.38;;
78416;SDS011;67715;46.170;6.140;2024-02-23T09:51:39;1.58;;;0.38;;
78416;SDS011;67715;46.170;6.140;2024-02-23T09:54:05;1.95;;;0.88;;
78416;SDS011;67715;46.170;6.140;2024-02-23T09:56:31;1.80;;;0.65;;
78416;SDS011;67715;46.170;6.140;2024-02-23T09:58:59;1.10;;;0.90;;
78416;SDS011;67715;46.170;6.140;2024-02-23T10:01:31;2.20;;;0.55;;
78416;SDS011;67715;46.170;6.140;2024-02-23T10:03:58;3.25;;;0.45;;
78416;SDS011;67715;46.170;6.140;2024-02-23T10:06:24;2.45;;;0.40;;
78416;SDS011;67715;46.170;6.140;2024-02-23T10:08:50;2.10;;;0.35;;
78416;SDS011;67715;46.170;6.140;2024-02-23T10:11:19;2.10;;;0.40;;
78416;SDS011;67715;46.170;6.140;2024-02-23T10:13:46;1.38;;;0.30;;
78416;SDS011;67715;46.170;6.140;2024-02-23T10:16:14;0.47;;;0.20;;
78416;SDS011;67715;46.170;6.140;2024-02-23T10:18:40;0.40;;;0.23;;
78416;SDS011;67715;46.170;6.140;2024-02-23T10:21:05;2.00;;;0.47;;
78416;SDS011;67715;46.170;6.140;2024-02-23T10:23:30;0.90;;;0.23;;
78416;SDS011;67715;46.170;6.140;2024-02-23T10:25:56;1.37;;;0.47;;
78416;SDS011;67715;46.170;6.140;2024-02-23T10:28:21;2.07;;;0.50;;
78416;SDS011;67715;46.170;6.140;2024-02-23T10:30:47;3.83;;;0.60;;
78416;SDS011;67715;46.170;6.140;2024-02-23T10:33:13;1.98;;;0.70;;
78416;SDS011;67715;46.170;6.140;2024-02-23T10:35:39;2.25;;;0.60;;
78416;SDS011;67715;46.170;6.140;2024-02-23T10:38:05;3.22;;;0.60;;
78416;SDS011;67715;46.170;6.140;2024-02-23T10:40:34;0.90;;;0.50;;
78416;SDS011;67715;46.170;6.140;2024-02-23T10:43:05;0.47;;;0.30;;
78416;SDS011;67715;46.170;6.140;2024-02-23T10:45:33;0.70;;;0.57;;
78416;SDS011;67715;46.170;6.140;2024-02-23T10:48:01;1.80;;;0.43;;
78416;SDS011;67715;46.170;6.140;2024-02-23T10:50:27;0.57;;;0.40;;
78416;SDS011;67715;46.170;6.140;2024-02-23T10:52:52;1.38;;;0.50;;
78416;SDS011;67715;46.170;6.140;2024-02-23T10:55:19;0.65;;;0.30;;
78416;SDS011;67715;46.170;6.140;2024-02-23T10:57:45;2.45;;;0.75;;
78416;SDS011;67715;46.170;6.140;2024-02-23T11:00:13;2.10;;;0.25;;
78416;SDS011;67715;46.170;6.140;2024-02-23T11:02:42;2.38;;;0.50;;
78416;SDS011;67715;46.170;6.140;2024-02-23T11:05:09;2.63;;;0.55;;
78416;SDS011;67715;46.170;6.140;2024-02-23T11:07:40;1.80;;;0.38;;
78416;SDS011;67715;46.170;6.140;2024-02-23T11:10:06;0.77;;;0.60;;
78416;SDS011;67715;46.170;6.140;2024-02-23T11:12:33;2.28;;;0.50;;
78416;SDS011;67715;46.170;6.140;2024-02-23T11:14:59;0.65;;;0.50;;
78416;SDS011;67715;46.170;6.140;2024-02-23T11:17:28;1.40;;;0.47;;
78416;SDS011;67715;46.170;6.140;2024-02-23T11:19:55;1.40;;;0.35;;
78416;SDS011;67715;46.170;6.140;2024-02-23T11:22:30;1.80;;;0.50;;
78416;SDS011;67715;46.170;6.140;2024-02-23T11:25:00;1.27;;;0.20;;
78416;SDS011;67715;46.170;6.140;2024-02-23T11:27:33;1.42;;;0.30;;
78416;SDS011;67715;46.170;6.140;2024-02-23T11:29:59;1.92;;;0.32;;
78416;SDS011;67715;46.170;6.140;2024-02-23T11:32:34;0.88;;;0.30;;
78416;SDS011;67715;46.170;6.140;2024-02-23T11:35:06;3.67;;;0.40;;
78416;SDS011;67715;46.170;6.140;2024-02-23T11:37:33;1.85;;;0.32;;
78416;SDS011;67715;46.170;6.140;2024-02-23T11:40:09;3.40;;;0.40;;
78416;SDS011;67715;46.170;6.140;2024-02-23T11:42:35;1.73;;;0.38;;
78416;SDS011;67715;46.170;6.140;2024-02-23T11:45:00;2.08;;;0.32;;
78416;SDS011;67715;46.170;6.140;2024-02-23T11:47:26;1.02;;;0.45;;
78416;SDS011;67715;46.170;6.140;2024-02-23T11:49:51;2.30;;;0.40;;
78416;SDS011;67715;46.170;6.140;2024-02-23T11:52:16;2.70;;;0.50;;
78416;SDS011;67715;46.170;6.140;2024-02-23T11:54:42;1.25;;;0.30;;
78416;SDS011;67715;46.170;6.140;2024-02-23T11:57:07;2.10;;;0.50;;
78416;SDS011;67715;46.170;6.140;2024-02-23T11:59:33;2.50;;;0.30;;
78416;SDS011;67715;46.170;6.140;2024-02-23T12:01:58;0.93;;;0.30;;
78416;SDS011;67715;46.170;6.140;2024-02-23T12:04:26;1.67;;;0.63;;
78416;SDS011;67715;46.170;6.140;2024-02-23T12:06:52;1.23;;;0.20;;
78416;SDS011;67715;46.170;6.140;2024-02-23T12:09:17;1.03;;;0.23;;
78416;SDS011;67715;46.170;6.140;2024-02-23T12:11:42;1.40;;;0.52;;
78416;SDS011;67715;46.170;6.140;2024-02-23T12:14:08;1.20;;;0.60;;
78416;SDS011;67715;46.170;6.140;2024-02-23T12:16:34;0.80;;;0.30;;
78416;SDS011;67715;46.170;6.140;2024-02-23T12:19:02;1.35;;;0.38;;
78416;SDS011;67715;46.170;6.140;2024-02-23T12:21:28;1.02;;;0.30;;
78416;SDS011;67715;46.170;6.140;2024-02-23T12:23:53;0.93;;;0.33;;
78416;SDS011;67715;46.170;6.140;2024-02-23T12:26:19;2.45;;;0.60;;
78416;SDS011;67715;46.170;6.140;2024-02-23T12:28:45;1.45;;;0.40;;
78416;SDS011;67715;46.170;6.140;2024-02-23T12:31:11;2.08;;;0.45;;
78416;SDS011;67715;46.170;6.140;2024-02-23T12:33:39;0.90;;;0.13;;
78416;SDS011;67715;46.170;6.140;2024-02-23T12:36:06;1.67;;;0.30;;
78416;SDS011;67715;46.170;6.140;2024-02-23T12:38:32;1.33;;;0.63;;
78416;SDS011;67715;46.170;6.140;2024-02-23T12:40:57;1.33;;;0.30;;
78416;SDS011;67715;46.170;6.140;2024-02-23T12:43:23;0.50;;;0.20;;
78416;SDS011;67715;46.170;6.140;2024-02-23T12:45:49;4.00;;;0.50;;
78416;SDS011;67715;46.170;6.140;2024-02-23T12:48:16;0.75;;;0.20;;
78416;SDS011;67715;46.170;6.140;2024-02-23T12:50:42;1.55;;;0.63;;
78416;SDS011;67715;46.170;6.140;2024-02-23T12:53:12;5.00;;;0.85;;
78416;SDS011;67715;46.170;6.140;2024-02-23T12:55:56;1.15;;;0.20;;
78416;SDS011;67715;46.170;6.140;2024-02-23T12:58:22;0.57;;;0.20;;
78416;SDS011;67715;46.170;6.140;2024-02-23T13:00:47;1.03;;;0.30;;
78416;SDS011;67715;46.170;6.140;2024-02-23T13:03:12;2.03;;;0.67;;
78416;SDS011;67715;46.170;6.140;2024-02-23T13:05:37;0.93;;;0.53;;
78416;SDS011;67715;46.170;6.140;2024-02-23T13:08:03;1.67;;;0.43;;
78416;SDS011;67715;46.170;6.140;2024-02-23T13:10:28;1.60;;;0.40;;
78416;SDS011;67715;46.170;6.140;2024-02-23T13:12:54;3.03;;;0.80;;
78416;SDS011;67715;46.170;6.140;2024-02-23T13:15:19;1.07;;;0.33;;
78416;SDS011;67715;46.170;6.140;2024-02-23T13:17:44;1.10;;;0.40;;
78416;SDS011;67715;46.170;6.140;2024-02-23T13:20:10;0.93;;;0.20;;
78416;SDS011;67715;46.170;6.140;2024-02-23T13:22:37;3.03;;;1.40;;
78416;SDS011;67715;46.170;6.140;2024-02-23T13:25:03;7.72;;;4.22;;
78416;SDS011;67715;46.170;6.140;2024-02-23T13:27:28;3.60;;;2.15;;
78416;SDS011;67715;46.170;6.140;2024-02-23T13:29:54;3.88;;;1.33;;
78416;SDS011;67715;46.170;6.140;2024-02-23T13:32:20;4.55;;;0.80;;
78416;SDS011;67715;46.170;6.140;2024-02-23T13:34:45;1.57;;;0.43;;
78416;SDS011;67715;46.170;6.140;2024-02-23T13:37:10;1.83;;;0.50;;
78416;SDS011;67715;46.170;6.140;2024-02-23T13:39:35;0.80;;;0.60;;
78416;SDS011;67715;46.170;6.140;2024-02-23T13:42:01;8.05;;;2.22;;
78416;SDS011;67715;46.170;6.140;2024-02-23T13:44:26;1.70;;;0.70;;
78416;SDS011;67715;46.170;6.140;2024-02-23T13:46:52;1.80;;;0.97;;
78416;SDS011;67715;46.170;6.140;2024-02-23T13:49:17;1.73;;;0.63;;
78416;SDS011;67715;46.170;6.140;2024-02-23T13:51:42;1.50;;;0.50;;
78416;SDS011;67715;46.170;6.140;2024-02-23T13:54:08;0.70;;;0.50;;
78416;SDS011;67715;46.170;6.140;2024-02-23T13:56:35;0.30;;;0.20;;
78416;SDS011;67715;46.170;6.140;2024-02-23T13:59:01;0.50;;;0.30;;
78416;SDS011;67715;46.170;6.140;2024-02-23T14:01:26;0.83;;;0.43;;
78416;SDS011;67715;46.170;6.140;2024-02-23T14:03:51;0.68;;;0.40;;
78416;SDS011;67715;46.170;6.140;2024-02-23T14:06:17;1.25;;;0.40;;
78416;SDS011;67715;46.170;6.140;2024-02-23T14:08:42;1.17;;;0.63;;
78416;SDS011;67715;46.170;6.140;2024-02-23T14:11:09;2.45;;;1.00;;
78416;SDS011;67715;46.170;6.140;2024-02-23T14:13:34;6.33;;;2.27;;
78416;SDS011;67715;46.170;6.140;2024-02-23T14:15:59;1.47;;;0.70;;
78416;SDS011;67715;46.170;6.140;2024-02-23T14:18:26;4.60;;;2.47;;
78416;SDS011;67715;46.170;6.140;2024-02-23T14:20:51;2.57;;;0.73;;
78416;SDS011;67715;46.170;6.140;2024-02-23T14:23:17;3.15;;;1.10;;
78416;SDS011;67715;46.170;6.140;2024-02-23T14:25:42;1.60;;;0.43;;
78416;SDS011;67715;46.170;6.140;2024-02-23T14:28:08;4.37;;;1.63;;
78416;SDS011;67715;46.170;6.140;2024-02-23T14:30:34;3.47;;;1.30;;
78416;SDS011;67715;46.170;6.140;2024-02-23T14:33:00;4.93;;;2.00;;
78416;SDS011;67715;46.170;6.140;2024-02-23T14:35:25;2.00;;;0.57;;
78416;SDS011;67715;46.170;6.140;2024-02-23T14:37:51;0.97;;;0.50;;
78416;SDS011;67715;46.170;6.140;2024-02-23T14:40:16;5.30;;;0.67;;